sensor_id;sensor_type;location;lat;lon;timestamp;pressure;altitude;pressure_sealevel;temperature;humidity
23996;BME280;12207;50.076;8.848;2022-10-26T00:02:23;100128.06;;;11.44;100.00
23996;BME280;12207;50.076;8.848;2022-10-26T00:04:50;100131.47;;;11.45;100.00
23996;BME280;12207;50.076;8.848;2022-10-26T00:07:16;100121.25;;;11.45;100.00
23996;BME280;12207;50.076;8.848;2022-10-26T00:09:43;100123.09;;;11.47;100.00
23996;BME280;12207;50.076;8.848;2022-10-26T00:12:09;100119.75;;;11.48;100.00
23996;BME280;12207;50.076;8.848;2022-10-26T00:14:36;100123.31;;;11.52;100.00
23996;BME280;12207;50.076;8.848;2022-10-26T00:17:02;100124.25;;;11.54;100.00
23996;BME280;12207;50.076;8.848;2022-10-26T00:19:31;100125.19;;;11.56;100.00
23996;BME280;12207;50.076;8.848;2022-10-26T00:21:58;100124.53;;;11.60;100.00
23996;BME280;12207;50.076;8.848;2022-10-26T00:24:24;100118.53;;;11.59;100.00
23996;BME280;12207;50.076;8.848;2022-10-26T00:26:51;100124.53;;;11.60;100.00
23996;BME280;12207;50.076;8.848;2022-10-26T00:29:17;100120.38;;;11.62;100.00
23996;BME280;12207;50.076;8.848;2022-10-26T00:31:44;100121.19;;;11.61;100.00
23996;BME280;12207;50.076;8.848;2022-10-26T00:34:12;100118.69;;;11.62;100.00
23996;BME280;12207;50.076;8.848;2022-10-26T00:36:38;100133.88;;;11.59;100.00
23996;BME280;12207;50.076;8.848;2022-10-26T00:39:05;100121.03;;;11.58;100.00
23996;BME280;12207;50.076;8.848;2022-10-26T00:41:32;100122.91;;;11.62;100.00
23996;BME280;12207;50.076;8.848;2022-10-26T00:43:59;100124.84;;;11.66;100.00
23996;BME280;12207;50.076;8.848;2022-10-26T00:46:27;100121.38;;;11.66;100.00
23996;BME280;12207;50.076;8.848;2022-10-26T00:48:57;100121.31;;;11.64;100.00
23996;BME280;12207;50.076;8.848;2022-10-26T00:51:31;100129.94;;;11.66;100.00
23996;BME280;12207;50.076;8.848;2022-10-26T00:54:03;100125.63;;;11.65;100.00
23996;BME280;12207;50.076;8.848;2022-10-26T00:56:30;100125.69;;;11.67;100.00
23996;BME280;12207;50.076;8.848;2022-10-26T00:58:59;100127.16;;;11.61;100.00
23996;BME280;12207;50.076;8.848;2022-10-26T01:01:26;100129.59;;;11.58;100.00
23996;BME280;12207;50.076;8.848;2022-10-26T01:03:53;100133.97;;;11.61;100.00
23996;BME280;12207;50.076;8.848;2022-10-26T01:06:20;100120.44;;;11.63;100.00
23996;BME280;12207;50.076;8.848;2022-10-26T01:08:47;100128.91;;;11.62;100.00
23996;BME280;12207;50.076;8.848;2022-10-26T01:11:13;100128.91;;;11.62;100.00
23996;BME280;12207;50.076;8.848;2022-10-26T01:13:40;100124.53;;;11.60;100.00
23996;BME280;12207;50.076;8.848;2022-10-26T01:26:25;100113.09;;;11.52;100.00
23996;BME280;12207;50.076;8.848;2022-10-26T01:29:09;100108.84;;;11.52;100.00
23996;BME280;12207;50.076;8.848;2022-10-26T01:31:43;100102.94;;;11.53;100.00
23996;BME280;12207;50.076;8.848;2022-10-26T01:34:18;100099.78;;;11.59;100.00
23996;BME280;12207;50.076;8.848;2022-10-26T01:36:49;100095.75;;;11.64;100.00
23996;BME280;12207;50.076;8.848;2022-10-26T01:39:20;100095.47;;;11.58;100.00
23996;BME280;12207;50.076;8.848;2022-10-26T01:41:53;100104.25;;;11.63;100.00
23996;BME280;12207;50.076;8.848;2022-10-26T01:44:22;100097.72;;;11.70;100.00
23996;BME280;12207;50.076;8.848;2022-10-26T01:46:50;100106.25;;;11.70;100.00
23996;BME280;12207;50.076;8.848;2022-10-26T01:49:20;100095.44;;;11.76;100.00
23996;BME280;12207;50.076;8.848;2022-10-26T01:51:48;100095.50;;;11.77;100.00
23996;BME280;12207;50.076;8.848;2022-10-26T01:54:15;100089.44;;;11.75;100.00
23996;BME280;12207;50.076;8.848;2022-10-26T01:56:42;100082.78;;;11.79;100.00
23996;BME280;12207;50.076;8.848;2022-10-26T02:07:02;100097.25;;;11.78;100.00
23996;BME280;12207;50.076;8.848;2022-10-26T02:09:42;100085.25;;;11.77;100.00
23996;BME280;12207;50.076;8.848;2022-10-26T02:12:13;100091.41;;;11.81;100.00
23996;BME280;12207;50.076;8.848;2022-10-26T02:14:48;100086.22;;;11.79;100.00
23996;BME280;12207;50.076;8.848;2022-10-26T02:17:22;100083.88;;;11.84;100.00
23996;BME280;12207;50.076;8.848;2022-10-26T02:19:57;100092.16;;;11.78;100.00
23996;BME280;12207;50.076;8.848;2022-10-26T02:22:27;100092.25;;;11.62;100.00
23996;BME280;12207;50.076;8.848;2022-10-26T02:24:55;100081.06;;;11.60;100.00
23996;BME280;12207;50.076;8.848;2022-10-26T02:27:27;100083.94;;;11.66;100.00
23996;BME280;12207;50.076;8.848;2022-10-26T02:29:54;100089.31;;;11.72;100.00
23996;BME280;12207;50.076;8.848;2022-10-26T02:32:22;100085.84;;;11.72;100.00
23996;BME280;12207;50.076;8.848;2022-10-26T02:34:50;100087.81;;;11.77;100.00
23996;BME280;12207;50.076;8.848;2022-10-26T02:37:18;100084.22;;;11.72;100.00
23996;BME280;12207;50.076;8.848;2022-10-26T02:39:46;100083.44;;;11.55;100.00
23996;BME280;12207;50.076;8.848;2022-10-26T02:42:14;100073.25;;;11.57;100.00
23996;BME280;12207;50.076;8.848;2022-10-26T02:44:42;100077.78;;;11.62;100.00
23996;BME280;12207;50.076;8.848;2022-10-26T02:47:10;100064.22;;;11.63;100.00
23996;BME280;12207;50.076;8.848;2022-10-26T02:49:37;100063.47;;;11.66;100.00
23996;BME280;12207;50.076;8.848;2022-10-26T02:52:05;100067.03;;;11.70;100.00
23996;BME280;12207;50.076;8.848;2022-10-26T02:54:55;100060.97;;;11.68;100.00
23996;BME280;12207;50.076;8.848;2022-10-26T02:57:31;100062.72;;;11.69;100.00
23996;BME280;12207;50.076;8.848;2022-10-26T02:59:59;100058.69;;;11.74;100.00
23996;BME280;12207;50.076;8.848;2022-10-26T03:02:26;100060.38;;;11.73;100.00
23996;BME280;12207;50.076;8.848;2022-10-26T03:04:53;100055.31;;;11.75;100.00
23996;BME280;12207;50.076;8.848;2022-10-26T03:07:23;100051.28;;;11.80;100.00
23996;BME280;12207;50.076;8.848;2022-10-26T03:09:50;100046.03;;;11.77;100.00
23996;BME280;12207;50.076;8.848;2022-10-26T03:12:17;100045.16;;;11.76;100.00
23996;BME280;12207;50.076;8.848;2022-10-26T03:14:43;100056.22;;;11.75;100.00
23996;BME280;12207;50.076;8.848;2022-10-26T03:17:10;100046.00;;;11.75;100.00
23996;BME280;12207;50.076;8.848;2022-10-26T03:19:36;100047.81;;;11.78;100.00
23996;BME280;12207;50.076;8.848;2022-10-26T03:22:03;100051.97;;;11.76;100.00
23996;BME280;12207;50.076;8.848;2022-10-26T03:24:29;100055.53;;;11.79;100.00
23996;BME280;12207;50.076;8.848;2022-10-26T03:26:56;100053.78;;;11.78;100.00
23996;BME280;12207;50.076;8.848;2022-10-26T03:29:22;100057.41;;;11.83;100.00
23996;BME280;12207;50.076;8.848;2022-10-26T03:31:49;100058.97;;;11.80;100.00
23996;BME280;12207;50.076;8.848;2022-10-26T03:34:19;100057.88;;;11.75;100.00
23996;BME280;12207;50.076;8.848;2022-10-26T03:36:46;100059.78;;;11.79;100.00
23996;BME280;12207;50.076;8.848;2022-10-26T03:39:13;100066.84;;;11.84;100.00
23996;BME280;12207;50.076;8.848;2022-10-26T03:41:39;100060.94;;;11.85;100.00
23996;BME280;12207;50.076;8.848;2022-10-26T03:44:06;100064.94;;;11.80;100.00
23996;BME280;12207;50.076;8.848;2022-10-26T03:46:32;100065.91;;;11.82;100.00
23996;BME280;12207;50.076;8.848;2022-10-26T03:48:59;100059.63;;;11.76;100.00
23996;BME280;12207;50.076;8.848;2022-10-26T03:51:25;100063.28;;;11.81;100.00
23996;BME280;12207;50.076;8.848;2022-10-26T03:53:53;100058.63;;;11.72;100.00
23996;BME280;12207;50.076;8.848;2022-10-26T03:56:20;100060.25;;;11.70;100.00
23996;BME280;12207;50.076;8.848;2022-10-26T03:58:46;100059.25;;;11.67;100.00
23996;BME280;12207;50.076;8.848;2022-10-26T04:01:13;100057.34;;;11.62;100.00
23996;BME280;12207;50.076;8.848;2022-10-26T04:03:39;100060.28;;;11.72;100.00
23996;BME280;12207;50.076;8.848;2022-10-26T04:06:06;100062.66;;;11.67;100.00
23996;BME280;12207;50.076;8.848;2022-10-26T04:08:32;100071.34;;;11.71;100.00
23996;BME280;12207;50.076;8.848;2022-10-26T04:10:59;100064.66;;;11.74;100.00
23996;BME280;12207;50.076;8.848;2022-10-26T04:13:25;100063.88;;;11.75;100.00
23996;BME280;12207;50.076;8.848;2022-10-26T04:15:52;100056.72;;;11.68;100.00
23996;BME280;12207;50.076;8.848;2022-10-26T04:18:18;100051.34;;;11.62;100.00
23996;BME280;12207;50.076;8.848;2022-10-26T04:20:45;100051.16;;;11.77;100.00
23996;BME280;12207;50.076;8.848;2022-10-26T04:23:15;100044.78;;;11.67;100.00
23996;BME280;12207;50.076;8.848;2022-10-26T04:25:42;100042.22;;;11.67;100.00
23996;BME280;12207;50.076;8.848;2022-10-26T04:28:09;100046.38;;;11.65;100.00
23996;BME280;12207;50.076;8.848;2022-10-26T04:30:36;100045.59;;;11.66;100.00
23996;BME280;12207;50.076;8.848;2022-10-26T04:33:03;100062.16;;;11.56;100.00
23996;BME280;12207;50.076;8.848;2022-10-26T04:35:30;100067.59;;;11.45;100.00
23996;BME280;12207;50.076;8.848;2022-10-26T04:37:57;100066.59;;;11.41;100.00
23996;BME280;12207;50.076;8.848;2022-10-26T04:40:24;100067.53;;;11.43;100.00
23996;BME280;12207;50.076;8.848;2022-10-26T04:42:51;100065.41;;;11.52;100.00
23996;BME280;12207;50.076;8.848;2022-10-26T04:45:17;100063.53;;;11.48;100.00
23996;BME280;12207;50.076;8.848;2022-10-26T04:47:44;100059.00;;;11.43;100.00
23996;BME280;12207;50.076;8.848;2022-10-26T04:50:11;100058.94;;;11.41;100.00
23996;BME280;12207;50.076;8.848;2022-10-26T04:52:38;100043.47;;;11.38;100.00
23996;BME280;12207;50.076;8.848;2022-10-26T04:55:05;100042.63;;;11.39;100.00
23996;BME280;12207;50.076;8.848;2022-10-26T04:57:32;100039.72;;;11.49;100.00
23996;BME280;12207;50.076;8.848;2022-10-26T05:00:00;100044.75;;;11.48;100.00
23996;BME280;12207;50.076;8.848;2022-10-26T05:02:27;100042.19;;;11.48;100.00
23996;BME280;12207;50.076;8.848;2022-10-26T05:04:54;100057.53;;;11.48;100.00
23996;BME280;12207;50.076;8.848;2022-10-26T05:07:21;100056.06;;;11.53;100.00
23996;BME280;12207;50.076;8.848;2022-10-26T05:09:47;100045.56;;;11.47;100.00
23996;BME280;12207;50.076;8.848;2022-10-26T05:12:14;100048.13;;;11.47;100.00
23996;BME280;12207;50.076;8.848;2022-10-26T05:14:40;100045.06;;;11.36;100.00
23996;BME280;12207;50.076;8.848;2022-10-26T05:17:07;100048.38;;;11.33;100.00
23996;BME280;12207;50.076;8.848;2022-10-26T05:19:33;100044.47;;;11.41;100.00
23996;BME280;12207;50.076;8.848;2022-10-26T05:22:00;100039.06;;;11.35;100.00
23996;BME280;12207;50.076;8.848;2022-10-26T05:24:26;100054.06;;;11.28;100.00
23996;BME280;12207;50.076;8.848;2022-10-26T05:26:53;100046.19;;;11.23;100.00
23996;BME280;12207;50.076;8.848;2022-10-26T05:29:19;100038.38;;;11.20;100.00
23996;BME280;12207;50.076;8.848;2022-10-26T05:31:46;100035.69;;;11.17;100.00
23996;BME280;12207;50.076;8.848;2022-10-26T05:34:12;100049.69;;;11.25;100.00
23996;BME280;12207;50.076;8.848;2022-10-26T05:36:39;100046.13;;;11.22;100.00
23996;BME280;12207;50.076;8.848;2022-10-26T05:39:05;100047.94;;;11.24;100.00
23996;BME280;12207;50.076;8.848;2022-10-26T05:41:32;100042.97;;;11.27;100.00
23996;BME280;12207;50.076;8.848;2022-10-26T05:43:58;100043.72;;;11.25;100.00
23996;BME280;12207;50.076;8.848;2022-10-26T05:46:25;100049.03;;;11.29;100.00
23996;BME280;12207;50.076;8.848;2022-10-26T05:48:51;100057.91;;;11.37;100.00
23996;BME280;12207;50.076;8.848;2022-10-26T05:51:18;100064.50;;;11.32;100.00
23996;BME280;12207;50.076;8.848;2022-10-26T05:53:45;100061.88;;;11.31;100.00
23996;BME280;12207;50.076;8.848;2022-10-26T05:56:30;100071.50;;;11.36;100.00
23996;BME280;12207;50.076;8.848;2022-10-26T05:58:58;100065.59;;;11.37;100.00
23996;BME280;12207;50.076;8.848;2022-10-26T06:01:34;100072.09;;;11.31;100.00
23996;BME280;12207;50.076;8.848;2022-10-26T06:04:17;100067.63;;;11.27;100.00
23996;BME280;12207;50.076;8.848;2022-10-26T06:06:46;100072.97;;;11.31;100.00
23996;BME280;12207;50.076;8.848;2022-10-26T06:09:17;100074.56;;;11.29;100.00
23996;BME280;12207;50.076;8.848;2022-10-26T06:11:44;100079.19;;;11.36;100.00
23996;BME280;12207;50.076;8.848;2022-10-26T06:14:11;100084.94;;;11.32;100.00
23996;BME280;12207;50.076;8.848;2022-10-26T06:16:41;100084.94;;;11.32;100.00
23996;BME280;12207;50.076;8.848;2022-10-26T06:24:39;100079.03;;;11.33;100.00
23996;BME280;12207;50.076;8.848;2022-10-26T06:32:19;100091.19;;;11.39;100.00
23996;BME280;12207;50.076;8.848;2022-10-26T06:34:48;100097.97;;;11.38;100.00
23996;BME280;12207;50.076;8.848;2022-10-26T06:37:15;100095.56;;;11.41;100.00
23996;BME280;12207;50.076;8.848;2022-10-26T06:39:44;100104.34;;;11.47;100.00
23996;BME280;12207;50.076;8.848;2022-10-26T06:42:12;100100.50;;;11.56;100.00
23996;BME280;12207;50.076;8.848;2022-10-26T06:44:38;100103.44;;;11.64;100.00
23996;BME280;12207;50.076;8.848;2022-10-26T06:47:06;100105.56;;;11.74;100.00
23996;BME280;12207;50.076;8.848;2022-10-26T06:50:18;100108.72;;;11.86;100.00
23996;BME280;12207;50.076;8.848;2022-10-26T06:54:51;100127.63;;;12.09;100.00
23996;BME280;12207;50.076;8.848;2022-10-26T06:57:20;100139.81;;;12.15;100.00
23996;BME280;12207;50.076;8.848;2022-10-26T07:02:21;100144.94;;;12.15;100.00
23996;BME280;12207;50.076;8.848;2022-10-26T07:04:47;100154.22;;;12.13;100.00
23996;BME280;12207;50.076;8.848;2022-10-26T07:07:20;100159.22;;;12.10;100.00
23996;BME280;12207;50.076;8.848;2022-10-26T07:09:48;100158.34;;;12.09;100.00
23996;BME280;12207;50.076;8.848;2022-10-26T07:12:16;100165.22;;;12.11;100.00
23996;BME280;12207;50.076;8.848;2022-10-26T07:14:42;100170.47;;;12.14;100.00
23996;BME280;12207;50.076;8.848;2022-10-26T07:17:09;100164.28;;;12.08;100.00
23996;BME280;12207;50.076;8.848;2022-10-26T07:19:36;100166.28;;;12.16;100.00
23996;BME280;12207;50.076;8.848;2022-10-26T07:22:02;100168.25;;;12.02;100.00
23996;BME280;12207;50.076;8.848;2022-10-26T07:24:29;100157.47;;;12.09;100.00
23996;BME280;12207;50.076;8.848;2022-10-26T07:26:56;100167.03;;;12.13;100.00
23996;BME280;12207;50.076;8.848;2022-10-26T07:29:23;100175.91;;;12.21;100.00
23996;BME280;12207;50.076;8.848;2022-10-26T07:31:51;100183.84;;;12.27;100.00
23996;BME280;12207;50.076;8.848;2022-10-26T07:34:17;100169.25;;;12.25;100.00
23996;BME280;12207;50.076;8.848;2022-10-26T07:36:44;100169.78;;;12.37;100.00
23996;BME280;12207;50.076;8.848;2022-10-26T07:39:10;100177.75;;;12.43;100.00
23996;BME280;12207;50.076;8.848;2022-10-26T07:41:37;100180.63;;;12.51;100.00
23996;BME280;12207;50.076;8.848;2022-10-26T07:44:04;100177.59;;;12.60;100.00
23996;BME280;12207;50.076;8.848;2022-10-26T07:46:30;100183.69;;;12.63;100.00
23996;BME280;12207;50.076;8.848;2022-10-26T07:48:57;100186.53;;;12.69;100.00
23996;BME280;12207;50.076;8.848;2022-10-26T07:51:23;100188.81;;;12.83;100.00
23996;BME280;12207;50.076;8.848;2022-10-26T07:53:51;100202.00;;;12.92;100.00
23996;BME280;12207;50.076;8.848;2022-10-26T07:56:18;100217.22;;;12.89;100.00
23996;BME280;12207;50.076;8.848;2022-10-26T07:58:44;100226.47;;;12.85;100.00
23996;BME280;12207;50.076;8.848;2022-10-26T08:01:12;100227.09;;;12.80;100.00
23996;BME280;12207;50.076;8.848;2022-10-26T08:03:39;100223.53;;;12.76;100.00
23996;BME280;12207;50.076;8.848;2022-10-26T08:06:05;100220.41;;;12.83;100.00
23996;BME280;12207;50.076;8.848;2022-10-26T08:08:32;100215.47;;;12.88;100.00
23996;BME280;12207;50.076;8.848;2022-10-26T08:10:59;100212.53;;;12.99;100.00
23996;BME280;12207;50.076;8.848;2022-10-26T08:13:26;100214.13;;;13.17;100.00
23996;BME280;12207;50.076;8.848;2022-10-26T08:15:59;100215.19;;;13.22;100.00
23996;BME280;12207;50.076;8.848;2022-10-26T08:18:26;100220.81;;;13.33;100.00
23996;BME280;12207;50.076;8.848;2022-10-26T08:20:53;100208.84;;;13.33;100.00
23996;BME280;12207;50.076;8.848;2022-10-26T08:23:20;100217.84;;;13.44;100.00
23996;BME280;12207;50.076;8.848;2022-10-26T08:25:46;100219.25;;;13.59;100.00
23996;BME280;12207;50.076;8.848;2022-10-26T08:28:13;100223.31;;;13.75;100.00
23996;BME280;12207;50.076;8.848;2022-10-26T08:30:39;100227.84;;;13.82;100.00
23996;BME280;12207;50.076;8.848;2022-10-26T08:33:06;100224.06;;;13.95;100.00
23996;BME280;12207;50.076;8.848;2022-10-26T08:35:33;100215.03;;;14.04;100.00
23996;BME280;12207;50.076;8.848;2022-10-26T08:37:59;100216.50;;;14.22;100.00
23996;BME280;12207;50.076;8.848;2022-10-26T08:40:30;100220.00;;;14.24;100.00
23996;BME280;12207;50.076;8.848;2022-10-26T08:43:15;100215.97;;;14.53;100.00
23996;BME280;12207;50.076;8.848;2022-10-26T08:45:45;100223.97;;;14.61;100.00
23996;BME280;12207;50.076;8.848;2022-10-26T08:48:14;100217.13;;;14.61;100.00
23996;BME280;12207;50.076;8.848;2022-10-26T08:50:48;100224.53;;;14.53;100.00
23996;BME280;12207;50.076;8.848;2022-10-26T08:53:18;100229.38;;;14.46;100.00
23996;BME280;12207;50.076;8.848;2022-10-26T08:55:50;100215.75;;;14.48;100.00
23996;BME280;12207;50.076;8.848;2022-10-26T08:58:19;100221.50;;;14.89;100.00
23996;BME280;12207;50.076;8.848;2022-10-26T09:00:47;100224.88;;;15.12;100.00
23996;BME280;12207;50.076;8.848;2022-10-26T09:03:16;100231.97;;;14.94;100.00
23996;BME280;12207;50.076;8.848;2022-10-26T09:08:34;100228.97;;;14.81;100.00
23996;BME280;12207;50.076;8.848;2022-10-26T09:11:11;100232.50;;;14.85;100.00
23996;BME280;12207;50.076;8.848;2022-10-26T09:16:34;100230.66;;;15.07;100.00
23996;BME280;12207;50.076;8.848;2022-10-26T09:21:57;100244.78;;;15.70;100.00
23996;BME280;12207;50.076;8.848;2022-10-26T09:24:30;100248.56;;;16.10;100.00
23996;BME280;12207;50.076;8.848;2022-10-26T09:27:01;100250.13;;;16.96;100.00
23996;BME280;12207;50.076;8.848;2022-10-26T09:29:35;100243.47;;;17.39;100.00
23996;BME280;12207;50.076;8.848;2022-10-26T09:32:03;100247.66;;;18.06;100.00
23996;BME280;12207;50.076;8.848;2022-10-26T09:37:01;100269.34;;;18.99;100.00
23996;BME280;12207;50.076;8.848;2022-10-26T09:39:41;100272.25;;;18.72;100.00
23996;BME280;12207;50.076;8.848;2022-10-26T09:42:15;100286.25;;;18.41;100.00
23996;BME280;12207;50.076;8.848;2022-10-26T09:44:47;100290.34;;;17.92;100.00
23996;BME280;12207;50.076;8.848;2022-10-26T09:47:21;100287.25;;;17.70;100.00
23996;BME280;12207;50.076;8.848;2022-10-26T09:49:52;100288.00;;;17.31;100.00
23996;BME280;12207;50.076;8.848;2022-10-26T09:52:20;100282.34;;;17.80;100.00
23996;BME280;12207;50.076;8.848;2022-10-26T09:54:47;100284.63;;;17.69;100.00
23996;BME280;12207;50.076;8.848;2022-10-26T09:57:14;100287.84;;;17.96;100.00
23996;BME280;12207;50.076;8.848;2022-10-26T09:59:41;100283.88;;;18.50;100.00
23996;BME280;12207;50.076;8.848;2022-10-26T10:02:54;100289.41;;;18.68;100.00
23996;BME280;12207;50.076;8.848;2022-10-26T10:04:54;100297.84;;;18.60;100.00
23996;BME280;12207;50.076;8.848;2022-10-26T10:07:21;100299.06;;;18.76;100.00
23996;BME280;12207;50.076;8.848;2022-10-26T10:10:06;100295.38;;;19.58;100.00
23996;BME280;12207;50.076;8.848;2022-10-26T10:12:33;100298.34;;;20.42;100.00
23996;BME280;12207;50.076;8.848;2022-10-26T10:15:00;100296.59;;;21.14;100.00
23996;BME280;12207;50.076;8.848;2022-10-26T10:17:26;100301.91;;;21.25;96.54
23996;BME280;12207;50.076;8.848;2022-10-26T10:19:53;100304.94;;;20.83;99.65
23996;BME280;12207;50.076;8.848;2022-10-26T10:22:20;100296.91;;;20.63;99.19
23996;BME280;12207;50.076;8.848;2022-10-26T10:24:56;100300.75;;;20.97;99.67
23996;BME280;12207;50.076;8.848;2022-10-26T10:27:23;100305.03;;;20.92;100.00
23996;BME280;12207;50.076;8.848;2022-10-26T10:29:51;100297.84;;;20.68;100.00
23996;BME280;12207;50.076;8.848;2022-10-26T10:32:19;100307.44;;;20.13;100.00
23996;BME280;12207;50.076;8.848;2022-10-26T10:34:46;100312.88;;;19.72;100.00
23996;BME280;12207;50.076;8.848;2022-10-26T10:42:32;100313.88;;;18.83;100.00
23996;BME280;12207;50.076;8.848;2022-10-26T10:44:59;100319.91;;;18.85;100.00
23996;BME280;12207;50.076;8.848;2022-10-26T10:47:30;100319.66;;;18.73;100.00
23996;BME280;12207;50.076;8.848;2022-10-26T10:52:28;100322.13;;;18.66;100.00
23996;BME280;12207;50.076;8.848;2022-10-26T10:55:05;100323.53;;;18.52;100.00
23996;BME280;12207;50.076;8.848;2022-10-26T10:57:38;100330.41;;;18.50;100.00
23996;BME280;12207;50.076;8.848;2022-10-26T11:00:09;100338.06;;;18.47;100.00
23996;BME280;12207;50.076;8.848;2022-10-26T11:07:50;100330.59;;;18.59;100.00
23996;BME280;12207;50.076;8.848;2022-10-26T11:10:18;100332.66;;;18.76;100.00
23996;BME280;12207;50.076;8.848;2022-10-26T11:12:51;100332.13;;;19.39;100.00
23996;BME280;12207;50.076;8.848;2022-10-26T11:15:20;100324.34;;;19.88;100.00
23996;BME280;12207;50.076;8.848;2022-10-26T11:17:59;100324.09;;;20.29;100.00
23996;BME280;12207;50.076;8.848;2022-10-26T11:20:30;100333.25;;;20.66;100.00
23996;BME280;12207;50.076;8.848;2022-10-26T11:23:03;100338.78;;;20.97;100.00
23996;BME280;12207;50.076;8.848;2022-10-26T11:25:34;100343.44;;;20.52;100.00
23996;BME280;12207;50.076;8.848;2022-10-26T11:28:03;100344.09;;;20.40;100.00
23996;BME280;12207;50.076;8.848;2022-10-26T11:30:31;100340.06;;;20.58;100.00
23996;BME280;12207;50.076;8.848;2022-10-26T11:33:02;100345.13;;;20.50;100.00
23996;BME280;12207;50.076;8.848;2022-10-26T11:38:11;100359.19;;;20.07;100.00
23996;BME280;12207;50.076;8.848;2022-10-26T11:40:41;100342.50;;;19.89;100.00
23996;BME280;12207;50.076;8.848;2022-10-26T11:43:15;100345.00;;;19.82;100.00
23996;BME280;12207;50.076;8.848;2022-10-26T11:45:44;100350.78;;;19.68;100.00
23996;BME280;12207;50.076;8.848;2022-10-26T11:48:13;100348.19;;;19.67;100.00
23996;BME280;12207;50.076;8.848;2022-10-26T11:50:44;100341.38;;;19.73;100.00
23996;BME280;12207;50.076;8.848;2022-10-26T11:53:15;100352.81;;;19.85;100.00
23996;BME280;12207;50.076;8.848;2022-10-26T11:55:45;100353.56;;;19.79;100.00
23996;BME280;12207;50.076;8.848;2022-10-26T11:58:12;100362.75;;;19.62;100.00
23996;BME280;12207;50.076;8.848;2022-10-26T12:00:43;100359.06;;;19.49;100.00
23996;BME280;12207;50.076;8.848;2022-10-26T12:03:14;100372.56;;;19.31;100.00
23996;BME280;12207;50.076;8.848;2022-10-26T12:05:44;100367.28;;;19.26;100.00
23996;BME280;12207;50.076;8.848;2022-10-26T12:08:15;100368.19;;;19.28;100.00
23996;BME280;12207;50.076;8.848;2022-10-26T12:10:46;100367.50;;;19.37;100.00
23996;BME280;12207;50.076;8.848;2022-10-26T12:23:11;100364.56;;;19.20;100.00
23996;BME280;12207;50.076;8.848;2022-10-26T12:25:38;100370.72;;;19.27;100.00
23996;BME280;12207;50.076;8.848;2022-10-26T12:28:06;100375.03;;;19.25;100.00
23996;BME280;12207;50.076;8.848;2022-10-26T12:30:51;100368.78;;;19.15;100.00
23996;BME280;12207;50.076;8.848;2022-10-26T12:33:28;100367.84;;;19.11;100.00
23996;BME280;12207;50.076;8.848;2022-10-26T12:35:55;100371.25;;;19.07;100.00
23996;BME280;12207;50.076;8.848;2022-10-26T12:43:37;100383.09;;;18.96;100.00
23996;BME280;12207;50.076;8.848;2022-10-26T12:46:49;100382.34;;;19.03;100.00
23996;BME280;12207;50.076;8.848;2022-10-26T12:48:50;100383.38;;;19.10;100.00
23996;BME280;12207;50.076;8.848;2022-10-26T12:53:49;100382.03;;;19.30;100.00
23996;BME280;12207;50.076;8.848;2022-10-26T12:56:19;100379.47;;;19.32;100.00
23996;BME280;12207;50.076;8.848;2022-10-26T13:08:56;100389.13;;;19.41;100.00
23996;BME280;12207;50.076;8.848;2022-10-26T13:11:30;100382.97;;;19.35;100.00
23996;BME280;12207;50.076;8.848;2022-10-26T13:13:57;100391.38;;;19.24;100.00
23996;BME280;12207;50.076;8.848;2022-10-26T13:16:25;100389.75;;;19.29;100.00
23996;BME280;12207;50.076;8.848;2022-10-26T13:18:53;100395.84;;;19.32;100.00
23996;BME280;12207;50.076;8.848;2022-10-26T13:21:20;100401.03;;;19.32;100.00
23996;BME280;12207;50.076;8.848;2022-10-26T13:26:22;100402.75;;;19.30;100.00
23996;BME280;12207;50.076;8.848;2022-10-26T13:28:50;100406.22;;;19.32;100.00
23996;BME280;12207;50.076;8.848;2022-10-26T13:31:51;100401.94;;;19.34;100.00
23996;BME280;12207;50.076;8.848;2022-10-26T13:39:10;100399.78;;;19.57;100.00
23996;BME280;12207;50.076;8.848;2022-10-26T13:41:39;100409.19;;;19.52;100.00
23996;BME280;12207;50.076;8.848;2022-10-26T13:44:10;100409.22;;;19.55;100.00
23996;BME280;12207;50.076;8.848;2022-10-26T13:46:39;100410.91;;;19.53;100.00
23996;BME280;12207;50.076;8.848;2022-10-26T13:49:07;100400.38;;;19.43;100.00
23996;BME280;12207;50.076;8.848;2022-10-26T13:51:42;100406.53;;;19.49;100.00
23996;BME280;12207;50.076;8.848;2022-10-26T13:54:15;100408.47;;;19.63;100.00
23996;BME280;12207;50.076;8.848;2022-10-26T13:56:56;100402.00;;;19.85;100.00
23996;BME280;12207;50.076;8.848;2022-10-26T13:59:24;100399.59;;;19.95;100.00
23996;BME280;12207;50.076;8.848;2022-10-26T14:04:37;100403.03;;;19.94;100.00
23996;BME280;12207;50.076;8.848;2022-10-26T14:07:04;100406.28;;;19.81;100.00
23996;BME280;12207;50.076;8.848;2022-10-26T14:09:30;100417.28;;;19.69;100.00
23996;BME280;12207;50.076;8.848;2022-10-26T14:12:00;100417.34;;;19.72;100.00
23996;BME280;12207;50.076;8.848;2022-10-26T14:14:28;100424.16;;;19.67;100.00
23996;BME280;12207;50.076;8.848;2022-10-26T14:16:56;100425.72;;;19.61;100.00
23996;BME280;12207;50.076;8.848;2022-10-26T14:19:26;100429.03;;;19.53;100.00
23996;BME280;12207;50.076;8.848;2022-10-26T14:21:54;100430.88;;;19.59;100.00
23996;BME280;12207;50.076;8.848;2022-10-26T14:24:30;100434.38;;;19.61;100.00
23996;BME280;12207;50.076;8.848;2022-10-26T14:26:58;100438.72;;;19.64;100.00
23996;BME280;12207;50.076;8.848;2022-10-26T14:29:25;100443.13;;;19.66;100.00